Time;durP1;ratioP1;P1;durP2;ratioP2;P2;SDS_P1;SDS_P2;PMS_P1;PMS_P2;Temp;Humidity;BMP_temperature;BMP_pressure;BME280_temperature;BME280_humidity;BME280_pressure;Samples;Min_cycle;Max_cycle;Signal;HPM_P1;HPM_P2
2022/07/10 00:00:28;;;;;;;;;;;22.80;62.10;;;;;;5056438;28;19909;-72
2022/07/10 00:02:54;;;;;;;;;;;22.80;62.10;;;;;;5056613;28;19909;-72
2022/07/10 00:05:19;;;;;;;;;;;22.70;61.50;;;;;;5056299;28;20263;-72
2022/07/10 00:07:45;;;;;;;;;;;22.80;61.50;;;;;;5056496;28;19913;-72
2022/07/10 00:10:11;;;;;;;;;;;22.80;61.80;;;;;;5056400;28;19955;-71
2022/07/10 00:12:37;;;;;;;;;;;22.80;62.00;;;;;;5038390;28;19943;-71
2022/07/10 00:15:03;;;;;;;;;;;22.90;61.40;;;;;;5056069;28;19916;-71
2022/07/10 00:17:29;;;;;;;;;;;22.80;61.70;;;;;;5056322;28;20027;-72
2022/07/10 00:19:54;;;;;;;;;;;22.90;62.30;;;;;;5056231;28;19944;-71
2022/07/10 00:22:20;;;;;;;;;;;22.80;62.10;;;;;;5056356;28;19948;-72
2022/07/10 00:24:46;;;;;;;;;;;22.60;62.60;;;;;;5056127;28;19955;-72
2022/07/10 00:27:11;;;;;;;;;;;22.60;62.20;;;;;;5055933;28;20330;-72
2022/07/10 00:29:37;;;;;;;;;;;22.40;63.30;;;;;;5056335;28;19917;-72
2022/07/10 00:32:03;;;;;;;;;;;22.40;63.40;;;;;;5056246;28;19909;-72
2022/07/10 00:34:28;;;;;;;;;;;22.40;62.70;;;;;;5055835;28;19915;-72
2022/07/10 00:36:54;;;;;;;;;;;22.40;63.00;;;;;;5055774;28;20381;-71
2022/07/10 00:39:19;;;;;;;;;;;22.30;63.80;;;;;;5055686;28;19921;-71
2022/07/10 00:41:45;;;;;;;;;;;22.30;63.30;;;;;;5055551;28;20422;-72
2022/07/10 00:44:10;;;;;;;;;;;22.30;63.60;;;;;;5055813;28;19912;-70
2022/07/10 00:46:36;;;;;;;;;;;22.20;63.50;;;;;;5056110;28;19923;-71
2022/07/10 00:49:01;;;;;;;;;;;22.20;64.20;;;;;;5055636;28;19920;-71
2022/07/10 00:51:28;;;;;;;;;;;22.30;63.60;;;;;;5055600;28;19967;-72
2022/07/10 00:53:54;;;;;;;;;;;22.30;63.30;;;;;;5037922;28;19915;-71
2022/07/10 00:56:23;;;;;;;;;;;22.40;63.60;;;;;;5055495;28;19908;-71
2022/07/10 00:58:49;;;;;;;;;;;22.30;64.10;;;;;;5055917;28;20329;-72
2022/07/10 01:01:15;;;;;;;;;;;22.30;63.90;;;;;;5054948;28;19909;-72
2022/07/10 01:03:40;;;;;;;;;;;22.30;64.50;;;;;;5037188;28;19921;-74
2022/07/10 01:06:06;;;;;;;;;;;22.30;64.00;;;;;;5055089;28;19912;-71
2022/07/10 01:08:32;;;;;;;;;;;22.30;63.80;;;;;;5037291;28;19909;-71
2022/07/10 01:10:58;;;;;;;;;;;22.30;64.00;;;;;;5054895;28;19909;-72
2022/07/10 01:13:24;;;;;;;;;;;22.20;65.10;;;;;;5055123;28;19909;-72
2022/07/10 01:15:49;;;;;;;;;;;22.20;64.50;;;;;;5055054;28;20011;-72
2022/07/10 01:18:15;;;;;;;;;;;22.20;64.80;;;;;;5055137;28;20361;-72
2022/07/10 01:20:40;;;;;;;;;;;22.10;65.80;;;;;;5055335;28;20193;-72
2022/07/10 01:23:06;;;;;;;;;;;22.00;64.80;;;;;;5055028;28;19917;-72
2022/07/10 01:25:32;;;;;;;;;;;21.90;65.20;;;;;;5054611;28;19919;-71
2022/07/10 01:27:58;;;;;;;;;;;21.80;65.90;;;;;;5054499;28;20015;-72
2022/07/10 01:30:24;;;;;;;;;;;21.70;65.90;;;;;;5054807;28;20362;-70
2022/07/10 01:32:50;;;;;;;;;;;21.70;65.90;;;;;;5054713;28;19909;-72
2022/07/10 01:35:16;;;;;;;;;;;21.70;65.60;;;;;;5054711;28;19984;-71
2022/07/10 01:37:41;;;;;;;;;;;21.80;65.10;;;;;;5054756;28;19921;-70
2022/07/10 01:40:08;;;;;;;;;;;21.80;65.80;;;;;;5054385;28;19913;-72
2022/07/10 01:42:33;;;;;;;;;;;21.90;65.40;;;;;;5054551;28;19909;-71
2022/07/10 01:44:59;;;;;;;;;;;21.90;65.50;;;;;;5054584;28;19920;-71
2022/07/10 01:47:27;;;;;;;;;;;22.00;65.40;;;;;;5054394;28;19936;-72
2022/07/10 01:49:53;;;;;;;;;;;22.00;64.90;;;;;;5054605;28;19909;-71
2022/07/10 01:52:19;;;;;;;;;;;22.10;65.10;;;;;;5053998;28;20367;-71
2022/07/10 01:54:45;;;;;;;;;;;22.10;66.50;;;;;;5036486;28;20006;-71
2022/07/10 01:57:11;;;;;;;;;;;22.00;65.30;;;;;;5054395;28;20335;-71
2022/07/10 01:59:36;;;;;;;;;;;20.80;66.60;;;;;;5054444;28;19916;-71
2022/07/10 02:02:02;;;;;;;;;;;21.80;65.80;;;;;;5054379;28;19913;-72
2022/07/10 02:04:42;;;;;;;;;;;21.80;66.70;;;;;;5054327;28;19912;-71
2022/07/10 02:07:08;;;;;;;;;;;21.70;66.80;;;;;;5054045;28;19912;-72
2022/07/10 02:09:34;;;;;;;;;;;20.50;65.70;;;;;;5053960;28;19963;-72
2022/07/10 02:12:00;;;;;;;;;;;21.50;67.10;;;;;;5054406;28;20345;-71
2022/07/10 02:14:25;;;;;;;;;;;21.50;66.70;;;;;;5054550;28;20004;-72
2022/07/10 02:16:51;;;;;;;;;;;21.50;66.30;;;;;;5053996;28;19909;-71
2022/07/10 02:19:16;;;;;;;;;;;21.60;67.10;;;;;;5036269;28;19913;-72
2022/07/10 02:21:42;;;;;;;;;;;21.70;66.30;;;;;;5053799;28;19913;-72
2022/07/10 02:24:07;;;;;;;;;;;21.70;66.20;;;;;;5053576;28;20465;-71
2022/07/10 02:26:33;;;;;;;;;;;21.80;66.00;;;;;;5053817;28;19913;-72
2022/07/10 02:28:59;;;;;;;;;;;21.90;65.60;;;;;;5054000;28;19909;-72
2022/07/10 02:31:24;;;;;;;;;;;21.90;65.70;;;;;;5036321;28;19908;-72
2022/07/10 02:33:50;;;;;;;;;;;22.00;65.40;;;;;;5035899;28;19908;-71
2022/07/10 02:36:15;;;;;;;;;;;22.00;65.00;;;;;;5019379;28;20351;-70
2022/07/10 02:38:41;;;;;;;;;;;22.00;64.90;;;;;;5053896;28;19929;-70
2022/07/10 02:41:06;;;;;;;;;;;22.10;64.90;;;;;;5053679;28;19912;-72
2022/07/10 02:43:32;;;;;;;;;;;22.10;64.50;;;;;;5053680;28;19916;-71
2022/07/10 02:45:57;;;;;;;;;;;22.10;64.90;;;;;;5053693;28;19928;-71
2022/07/10 02:48:23;;;;;;;;;;;22.10;64.70;;;;;;5053993;28;20268;-72
2022/07/10 02:50:48;;;;;;;;;;;22.20;64.50;;;;;;5053931;28;19909;-71
2022/07/10 02:53:14;;;;;;;;;;;22.20;64.30;;;;;;5053491;28;19909;-71
2022/07/10 02:55:39;;;;;;;;;;;22.30;64.20;;;;;;5053734;28;19908;-70
2022/07/10 02:58:05;;;;;;;;;;;22.40;63.80;;;;;;5053753;28;19956;-72
2022/07/10 03:00:30;;;;;;;;;;;22.40;63.70;;;;;;5053923;28;20298;-72
2022/07/10 03:02:56;;;;;;;;;;;22.30;64.20;;;;;;5053668;28;20306;-73
2022/07/10 03:05:22;;;;;;;;;;;22.20;63.70;;;;;;5054975;28;20019;-71
2022/07/10 03:07:47;;;;;;;;;;;22.20;64.00;;;;;;5057510;28;19921;-71
2022/07/10 03:10:13;;;;;;;;;;;22.30;63.80;;;;;;5040100;28;19908;-71
2022/07/10 03:12:38;;;;;;;;;;;22.30;64.00;;;;;;5057887;28;20270;-71
2022/07/10 03:15:05;;;;;;;;;;;22.40;63.60;;;;;;5057324;28;19959;-71
2022/07/10 03:17:30;;;;;;;;;;;22.40;63.60;;;;;;5057213;28;19909;-71
2022/07/10 03:19:56;;;;;;;;;;;22.50;63.40;;;;;;5057275;28;19932;-71
2022/07/10 03:22:21;;;;;;;;;;;22.50;63.40;;;;;;5057334;28;19932;-73
2022/07/10 03:24:47;;;;;;;;;;;22.50;63.20;;;;;;5057174;28;19913;-71
2022/07/10 03:27:13;;;;;;;;;;;22.60;63.30;;;;;;5056930;28;19913;-71
2022/07/10 03:29:39;;;;;;;;;;;22.60;63.20;;;;;;5057178;28;19916;-72
2022/07/10 03:32:05;;;;;;;;;;;22.60;63.10;;;;;;5056960;28;19908;-72
2022/07/10 03:34:32;;;;;;;;;;;22.70;63.70;;;;;;5056853;28;20363;-72
2022/07/10 03:36:58;;;;;;;;;;;22.80;63.10;;;;;;5056917;28;19916;-71
2022/07/10 03:39:23;;;;;;;;;;;22.80;63.00;;;;;;5057589;28;19924;-71
2022/07/10 03:41:49;;;;;;;;;;;22.80;62.80;;;;;;5039128;28;20031;-71
2022/07/10 03:44:14;;;;;;;;;;;22.80;62.80;;;;;;5038936;28;19948;-71
2022/07/10 03:46:40;;;;;;;;;;;22.90;62.90;;;;;;5038861;28;20307;-74
2022/07/10 03:49:05;;;;;;;;;;;23.00;62.90;;;;;;5056781;28;19912;-71
2022/07/10 03:51:31;;;;;;;;;;;23.00;62.70;;;;;;5056519;28;19916;-70
2022/07/10 03:53:56;;;;;;;;;;;23.00;62.70;;;;;;5056691;28;19909;-71
2022/07/10 03:59:06;;;;;;;;;;;23.10;62.70;;;;;;5056781;28;19962;-72
2022/07/10 04:01:32;;;;;;;;;;;23.20;62.50;;;;;;5056576;28;19909;-71
2022/07/10 04:03:57;;;;;;;;;;;23.20;62.50;;;;;;5056373;28;19920;-71
2022/07/10 04:06:23;;;;;;;;;;;23.30;62.50;;;;;;5056476;28;20252;-72
2022/07/10 04:08:48;;;;;;;;;;;23.30;62.40;;;;;;5056463;28;20370;-71
2022/07/10 04:11:14;;;;;;;;;;;23.40;62.30;;;;;;5056344;28;19909;-71
2022/07/10 04:13:39;;;;;;;;;;;23.40;62.40;;;;;;5056234;28;20397;-72
2022/07/10 04:16:05;;;;;;;;;;;23.40;62.20;;;;;;5055727;28;20375;-72
2022/07/10 04:18:31;;;;;;;;;;;23.40;62.10;;;;;;5056001;28;19916;-72
2022/07/10 04:20:56;;;;;;;;;;;23.40;62.10;;;;;;5056088;28;19982;-71
2022/07/10 04:23:22;;;;;;;;;;;23.40;61.90;;;;;;5056171;28;19915;-72
2022/07/10 04:25:47;;;;;;;;;;;23.40;62.00;;;;;;5055901;28;19917;-71
2022/07/10 04:28:13;;;;;;;;;;;23.30;62.40;;;;;;5038259;28;19967;-72
2022/07/10 04:30:38;;;;;;;;;;;23.20;62.40;;;;;;5055815;28;19909;-71
2022/07/10 04:33:04;;;;;;;;;;;23.10;62.40;;;;;;5055930;28;19909;-72
2022/07/10 04:35:29;;;;;;;;;;;23.00;62.70;;;;;;5055647;28;19909;-72
2022/07/10 04:37:55;;;;;;;;;;;23.00;62.80;;;;;;5055371;28;20295;-72
2022/07/10 04:40:20;;;;;;;;;;;23.00;63.90;;;;;;5055784;28;19909;-72
2022/07/10 04:42:46;;;;;;;;;;;23.00;63.10;;;;;;5055712;28;20024;-72
2022/07/10 04:45:11;;;;;;;;;;;22.90;63.00;;;;;;5055751;28;19921;-71
2022/07/10 04:47:37;;;;;;;;;;;22.90;63.30;;;;;;5055694;28;19959;-73
2022/07/10 04:50:02;;;;;;;;;;;22.90;63.60;;;;;;5055663;28;20270;-71
2022/07/10 04:52:28;;;;;;;;;;;22.90;63.10;;;;;;5037808;28;19909;-72
2022/07/10 04:54:54;;;;;;;;;;;22.90;63.80;;;;;;5055991;28;19948;-72
2022/07/10 04:57:19;;;;;;;;;;;22.90;63.10;;;;;;5055420;28;19908;-72
2022/07/10 04:59:45;;;;;;;;;;;23.00;63.10;;;;;;5055265;28;19939;-72
2022/07/10 05:02:10;;;;;;;;;;;23.00;63.10;;;;;;5055396;28;19909;-72
2022/07/10 05:04:36;;;;;;;;;;;23.10;63.00;;;;;;5037342;28;19959;-72
2022/07/10 05:07:01;;;;;;;;;;;23.20;63.20;;;;;;5036863;28;20007;-72
2022/07/10 05:09:27;;;;;;;;;;;21.80;62.10;;;;;;5055415;28;19978;-71
2022/07/10 05:11:53;;;;;;;;;;;23.40;62.80;;;;;;5055504;28;20022;-72
2022/07/10 05:14:18;;;;;;;;;;;23.40;63.10;;;;;;5055575;28;20015;-73
2022/07/10 05:16:44;;;;;;;;;;;23.50;62.80;;;;;;5054977;28;20003;-72
2022/07/10 05:19:09;;;;;;;;;;;23.50;62.50;;;;;;5055023;28;19909;-71
2022/07/10 05:21:35;;;;;;;;;;;23.50;62.70;;;;;;5054528;28;19915;-71
2022/07/10 05:24:01;;;;;;;;;;;23.60;62.40;;;;;;5036970;28;19967;-71
2022/07/10 05:26:26;;;;;;;;;;;23.50;62.30;;;;;;5054746;28;19917;-72
2022/07/10 05:28:52;;;;;;;;;;;23.60;62.60;;;;;;5036076;28;20252;-72
2022/07/10 05:31:17;;;;;;;;;;;23.60;62.50;;;;;;5054296;28;19920;-72
2022/07/10 05:33:43;;;;;;;;;;;23.50;62.60;;;;;;5054444;28;19912;-72
2022/07/10 05:36:08;;;;;;;;;;;23.40;63.00;;;;;;5053956;28;19916;-71
2022/07/10 05:38:34;;;;;;;;;;;23.30;62.80;;;;;;5035237;28;19948;-74
2022/07/10 05:41:00;;;;;;;;;;;23.30;63.00;;;;;;5053323;28;19912;-71
2022/07/10 05:43:25;;;;;;;;;;;23.40;63.10;;;;;;5053047;28;19909;-73
2022/07/10 05:45:51;;;;;;;;;;;23.40;63.40;;;;;;5053271;28;19921;-74
2022/07/10 05:48:16;;;;;;;;;;;23.30;63.20;;;;;;5034995;28;20314;-71
2022/07/10 05:50:42;;;;;;;;;;;23.30;63.40;;;;;;5053464;28;19920;-75
2022/07/10 05:53:07;;;;;;;;;;;23.30;63.40;;;;;;5053411;28;19912;-72
2022/07/10 05:55:33;;;;;;;;;;;23.30;63.70;;;;;;5053425;28;20282;-71
2022/07/10 05:57:59;;;;;;;;;;;23.30;63.50;;;;;;5052734;28;19913;-73
2022/07/10 06:00:24;;;;;;;;;;;23.40;63.50;;;;;;5034924;28;19912;-74
2022/07/10 06:02:50;;;;;;;;;;;23.40;63.60;;;;;;5052892;28;19916;-71
2022/07/10 06:05:15;;;;;;;;;;;23.40;64.50;;;;;;5035442;28;20417;-72
2022/07/10 06:07:41;;;;;;;;;;;23.40;63.50;;;;;;5052576;28;20367;-73
2022/07/10 06:10:07;;;;;;;;;;;23.50;63.60;;;;;;5052379;28;19916;-73
2022/07/10 06:12:32;;;;;;;;;;;23.50;63.70;;;;;;5052897;28;19912;-71
2022/07/10 06:14:58;;;;;;;;;;;23.60;63.50;;;;;;5053601;28;19915;-73
2022/07/10 06:17:24;;;;;;;;;;;23.60;63.30;;;;;;5035377;28;19909;-74
2022/07/10 06:19:49;;;;;;;;;;;23.70;63.10;;;;;;5052711;28;19936;-77
2022/07/10 06:22:30;;;;;;;;;;;23.70;63.00;;;;;;5050091;28;19919;-78
2022/07/10 06:24:56;;;;;;;;;;;23.80;63.10;;;;;;5052590;28;20035;-76
2022/07/10 06:27:22;;;;;;;;;;;23.90;63.00;;;;;;5054251;28;20006;-78
2022/07/10 06:29:48;;;;;;;;;;;24.00;62.80;;;;;;5052684;28;19920;-78
2022/07/10 06:32:13;;;;;;;;;;;24.00;62.40;;;;;;5053102;28;19960;-80
2022/07/10 06:34:39;;;;;;;;;;;24.00;62.40;;;;;;5052620;28;19909;-78
2022/07/10 06:37:04;;;;;;;;;;;24.00;62.20;;;;;;5034219;28;19962;-79
2022/07/10 06:39:35;;;;;;;;;;;23.90;62.40;;;;;;5036324;28;19927;-78
2022/07/10 06:42:04;;;;;;;;;;;23.90;62.60;;;;;;5037816;28;19913;-79
2022/07/10 06:44:30;;;;;;;;;;;23.90;62.50;;;;;;5034816;28;20378;-78
2022/07/10 06:49:40;;;;;;;;;;;24.00;62.50;;;;;;5055294;28;19923;-80
2022/07/10 06:52:05;;;;;;;;;;;24.00;62.30;;;;;;5037341;28;19909;-78
2022/07/10 06:54:31;;;;;;;;;;;24.00;62.40;;;;;;5038113;28;19966;-80
2022/07/10 06:56:57;;;;;;;;;;;24.00;62.40;;;;;;5059510;28;19928;-77
2022/07/10 06:59:22;;;;;;;;;;;23.90;62.40;;;;;;5039525;28;19916;-80
2022/07/10 07:01:48;;;;;;;;;;;23.90;62.30;;;;;;5057673;28;19988;-78
2022/07/10 07:04:14;;;;;;;;;;;23.90;62.20;;;;;;5057664;28;19987;-78
2022/07/10 07:06:39;;;;;;;;;;;23.90;62.30;;;;;;5057142;28;20263;-78
2022/07/10 07:09:05;;;;;;;;;;;23.90;62.20;;;;;;5055760;28;19913;-81
2022/07/10 07:11:31;;;;;;;;;;;23.90;62.40;;;;;;5056261;28;19908;-79
2022/07/10 07:13:56;;;;;;;;;;;23.80;62.20;;;;;;5055943;28;20478;-79
2022/07/10 07:16:37;;;;;;;;;;;23.80;62.30;;;;;;5055813;28;19991;-79
2022/07/10 07:19:04;;;;;;;;;;;23.90;62.30;;;;;;5038435;28;19909;-76
2022/07/10 07:24:18;;;;;;;;;;;24.00;61.90;;;;;;5055528;28;20325;-75
2022/07/10 07:26:44;;;;;;;;;;;24.00;61.80;;;;;;5055952;28;19948;-78
2022/07/10 07:29:10;;;;;;;;;;;24.10;61.70;;;;;;5056019;28;20397;-78
2022/07/10 07:31:36;;;;;;;;;;;24.20;61.60;;;;;;5038294;28;19956;-81
2022/07/10 07:34:01;;;;;;;;;;;24.20;61.70;;;;;;5056436;28;19908;-79
2022/07/10 07:36:27;;;;;;;;;;;24.10;61.60;;;;;;5057853;28;19935;-80
2022/07/10 07:38:53;;;;;;;;;;;24.20;61.70;;;;;;5057212;28;19925;-79
2022/07/10 07:41:18;;;;;;;;;;;24.20;61.30;;;;;;5055587;28;19962;-81
2022/07/10 07:43:44;;;;;;;;;;;24.40;61.50;;;;;;5055083;28;19909;-82
2022/07/10 07:46:09;;;;;;;;;;;24.50;61.20;;;;;;5055870;28;19964;-80
2022/07/10 07:48:35;;;;;;;;;;;24.50;60.90;;;;;;5055781;28;19952;-83
2022/07/10 07:51:00;;;;;;;;;;;24.60;60.90;;;;;;5036494;28;19980;-79
2022/07/10 07:53:26;;;;;;;;;;;24.70;60.30;;;;;;5056555;28;19908;-82
2022/07/10 07:55:52;;;;;;;;;;;24.80;60.60;;;;;;5038650;28;19954;-81
2022/07/10 07:58:17;;;;;;;;;;;24.90;60.50;;;;;;5055806;28;19993;-82
2022/07/10 08:00:43;;;;;;;;;;;25.00;60.30;;;;;;5056002;28;19913;-81
2022/07/10 08:03:08;;;;;;;;;;;25.00;60.10;;;;;;5056212;28;19916;-81
2022/07/10 08:05:34;;;;;;;;;;;25.10;60.00;;;;;;5055410;28;19913;-82
2022/07/10 08:08:04;;;;;;;;;;;25.20;60.00;;;;;;5056724;28;20594;-83
2022/07/10 08:10:30;;;;;;;;;;;24.70;59.50;;;;;;5037762;28;19913;-82
2022/07/10 08:12:56;;;;;;;;;;;25.30;59.60;;;;;;5036673;28;19916;-85
2022/07/10 08:15:22;;;;;;;;;;;25.30;59.50;;;;;;5054543;28;19928;-84
2022/07/10 08:17:48;;;;;;;;;;;25.30;59.00;;;;;;5036500;28;19919;-82
2022/07/10 08:20:14;;;;;;;;;;;25.30;59.40;;;;;;5035765;28;19955;-84
2022/07/10 08:22:40;;;;;;;;;;;25.30;59.50;;;;;;5053615;28;19909;-81
2022/07/10 08:25:06;;;;;;;;;;;25.30;59.60;;;;;;5054305;28;19916;-81
2022/07/10 08:27:31;;;;;;;;;;;25.40;59.40;;;;;;5054443;28;20274;-82
2022/07/10 08:29:57;;;;;;;;;;;25.40;59.10;;;;;;5053764;28;20365;-83
2022/07/10 08:32:23;;;;;;;;;;;25.50;59.40;;;;;;5054010;28;19913;-83
2022/07/10 08:34:48;;;;;;;;;;;25.50;59.10;;;;;;5054165;28;19952;-83
2022/07/10 08:37:14;;;;;;;;;;;25.60;59.30;;;;;;5037088;28;19908;-83
2022/07/10 08:39:40;;;;;;;;;;;25.60;58.70;;;;;;5028052;28;20371;-81
2022/07/10 08:42:10;;;;;;;;;;;25.70;58.20;;;;;;5042544;28;19920;-81
2022/07/10 08:44:36;;;;;;;;;;;24.60;57.80;;;;;;5043633;28;20019;-79
2022/07/10 08:47:02;;;;;;;;;;;25.70;58.40;;;;;;5046562;28;19960;-78
2022/07/10 08:49:28;;;;;;;;;;;25.70;58.20;;;;;;5025853;28;19979;-78
2022/07/10 08:51:57;;;;;;;;;;;25.70;57.70;;;;;;5044147;28;19970;-80
2022/07/10 08:54:23;;;;;;;;;;;25.70;58.40;;;;;;5044199;28;20467;-81
2022/07/10 08:56:49;;;;;;;;;;;25.80;58.30;;;;;;5042847;28;20039;-81
2022/07/10 08:59:15;;;;;;;;;;;25.80;58.20;;;;;;5046010;28;19935;-80
2022/07/10 09:01:40;;;;;;;;;;;25.80;57.90;;;;;;5043691;28;20394;-80
2022/07/10 09:04:06;;;;;;;;;;;25.80;58.00;;;;;;5045511;28;19967;-79
2022/07/10 09:06:32;;;;;;;;;;;25.90;58.30;;;;;;5025609;28;19913;-79
2022/07/10 09:09:04;;;;;;;;;;;25.90;58.40;;;;;;5042835;28;20283;-79
2022/07/10 09:11:30;;;;;;;;;;;25.80;58.00;;;;;;5042751;28;19916;-78
2022/07/10 09:13:57;;;;;;;;;;;25.90;58.10;;;;;;5026034;28;19912;-79
2022/07/10 09:16:32;;;;;;;;;;;25.90;58.30;;;;;;5026575;28;19964;-80
2022/07/10 09:19:17;;;;;;;;;;;26.00;57.80;;;;;;5043969;28;19913;-79
2022/07/10 09:21:42;;;;;;;;;;;26.00;58.20;;;;;;5041946;28;19919;-81
2022/07/10 09:24:08;;;;;;;;;;;26.10;57.50;;;;;;5044808;28;19921;-80
2022/07/10 09:26:35;;;;;;;;;;;26.00;56.80;;;;;;5034746;28;19913;-79
2022/07/10 09:29:08;;;;;;;;;;;26.10;57.30;;;;;;5048971;28;20375;-82
2022/07/10 09:31:53;;;;;;;;;;;26.00;56.90;;;;;;5023515;28;19935;-82
2022/07/10 09:34:36;;;;;;;;;;;26.10;57.40;;;;;;5036656;28;19915;-81
2022/07/10 09:37:20;;;;;;;;;;;26.00;56.80;;;;;;5047542;28;20019;-81
2022/07/10 09:39:56;;;;;;;;;;;26.00;56.80;;;;;;5065567;28;20050;-82
2022/07/10 09:42:24;;;;;;;;;;;26.00;57.30;;;;;;5062060;28;20260;-79
2022/07/10 09:44:50;;;;;;;;;;;26.00;57.30;;;;;;5046669;28;19920;-83
2022/07/10 09:47:22;;;;;;;;;;;26.10;57.10;;;;;;5064575;28;19916;-85
2022/07/10 09:49:47;;;;;;;;;;;26.10;56.80;;;;;;5062298;28;19917;-84
2022/07/10 09:52:14;;;;;;;;;;;26.00;57.20;;;;;;5046199;28;19963;-83
2022/07/10 09:54:39;;;;;;;;;;;26.10;57.30;;;;;;5050176;28;19913;-82
2022/07/10 09:57:07;;;;;;;;;;;26.00;56.90;;;;;;5065196;28;20409;-83
2022/07/10 09:59:32;;;;;;;;;;;26.00;57.20;;;;;;5067005;28;19962;-83
2022/07/10 10:01:59;;;;;;;;;;;25.90;56.90;;;;;;5063289;28;19908;-84
2022/07/10 10:04:28;;;;;;;;;;;26.00;57.60;;;;;;5061495;28;20011;-83
2022/07/10 10:06:56;;;;;;;;;;;26.00;57.20;;;;;;5063280;28;19912;-83
2022/07/10 10:09:24;;;;;;;;;;;26.00;57.40;;;;;;5063676;28;20007;-83
2022/07/10 10:11:55;;;;;;;;;;;26.10;57.20;;;;;;5044726;28;19909;-83
2022/07/10 10:14:22;;;;;;;;;;;26.10;56.60;;;;;;5065356;28;19944;-82
2022/07/10 10:16:47;;;;;;;;;;;26.20;57.40;;;;;;5063401;28;19971;-83
2022/07/10 10:21:58;;;;;;;;;;;26.30;56.30;;;;;;5063164;28;20019;-83
2022/07/10 10:24:25;;;;;;;;;;;26.30;56.90;;;;;;5061379;28;19974;-84
2022/07/10 10:26:50;;;;;;;;;;;26.40;57.10;;;;;;5046648;28;19913;-82
2022/07/10 10:29:16;;;;;;;;;;;26.50;57.10;;;;;;5064021;28;19913;-82
2022/07/10 10:31:42;;;;;;;;;;;26.60;57.50;;;;;;5062753;28;20329;-81
2022/07/10 10:34:08;;;;;;;;;;;26.60;56.80;;;;;;5063910;28;19913;-80
2022/07/10 10:36:36;;;;;;;;;;;26.70;56.80;;;;;;5039476;28;19999;-79
2022/07/10 10:39:22;;;;;;;;;;;26.70;55.20;;;;;;5035994;28;19920;-77
2022/07/10 10:41:54;;;;;;;;;;;26.70;56.10;;;;;;5053106;28;19972;-79
2022/07/10 10:44:21;;;;;;;;;;;26.80;56.10;;;;;;5055837;28;20035;-80
2022/07/10 10:46:49;;;;;;;;;;;26.90;56.50;;;;;;5053977;28;19916;-80
2022/07/10 10:49:16;;;;;;;;;;;26.90;56.10;;;;;;5053607;28;20008;-75
2022/07/10 10:52:03;;;;;;;;;;;27.00;56.10;;;;;;5048165;28;19996;-82
2022/07/10 10:54:30;;;;;;;;;;;27.00;55.90;;;;;;5035476;28;19909;-79
2022/07/10 10:57:11;;;;;;;;;;;27.00;55.50;;;;;;5060711;28;19929;-81
2022/07/10 10:59:53;;;;;;;;;;;27.00;55.70;;;;;;5070573;28;19909;-81
2022/07/10 11:02:29;;;;;;;;;;;27.00;54.90;;;;;;5043082;28;20286;-82
2022/07/10 11:07:50;;;;;;;;;;;27.10;54.90;;;;;;5071782;28;19916;-83
2022/07/10 11:10:29;;;;;;;;;;;27.10;55.10;;;;;;5048514;28;19959;-82
2022/07/10 11:13:02;;;;;;;;;;;27.20;54.70;;;;;;5064614;28;20406;-82
2022/07/10 11:15:32;;;;;;;;;;;27.20;54.90;;;;;;5034216;28;19971;-82
2022/07/10 11:17:58;;;;;;;;;;;27.20;54.90;;;;;;5054742;28;20067;-82
2022/07/10 11:20:24;;;;;;;;;;;27.30;55.70;;;;;;5033983;28;19995;-82
2022/07/10 11:23:00;;;;;;;;;;;27.30;54.60;;;;;;5034569;28;19908;-83
2022/07/10 11:25:28;;;;;;;;;;;27.30;54.70;;;;;;5037781;28;19925;-84
2022/07/10 11:28:07;;;;;;;;;;;27.40;55.00;;;;;;5056665;28;19920;-84
2022/07/10 11:30:48;;;;;;;;;;;27.40;54.00;;;;;;5069508;28;19917;-85
2022/07/10 11:33:14;;;;;;;;;;;27.50;54.40;;;;;;5068937;28;19913;-83
2022/07/10 11:35:40;;;;;;;;;;;27.50;54.10;;;;;;5055644;28;19908;-85
2022/07/10 11:38:05;;;;;;;;;;;27.60;54.80;;;;;;5077873;28;19925;-84
2022/07/10 11:40:35;;;;;;;;;;;27.50;54.50;;;;;;5077230;28;19913;-84
2022/07/10 11:43:04;;;;;;;;;;;27.60;54.10;;;;;;5058251;28;19908;-84
2022/07/10 11:45:35;;;;;;;;;;;27.60;54.30;;;;;;5076446;28;19921;-82
2022/07/10 11:48:01;;;;;;;;;;;27.60;53.30;;;;;;5077315;28;19912;-84
2022/07/10 11:50:27;;;;;;;;;;;27.70;53.80;;;;;;5057718;28;20377;-84
2022/07/10 11:52:53;;;;;;;;;;;27.70;53.80;;;;;;5076034;28;19909;-84
2022/07/10 11:55:21;;;;;;;;;;;27.70;54.40;;;;;;5074967;28;20413;-83
2022/07/10 11:57:49;;;;;;;;;;;27.70;53.90;;;;;;5075675;28;19909;-84
2022/07/10 12:00:25;;;;;;;;;;;27.70;54.10;;;;;;5076057;28;19919;-83
2022/07/10 12:02:51;;;;;;;;;;;27.70;54.40;;;;;;5064303;28;19913;-83
2022/07/10 12:05:33;;;;;;;;;;;27.60;54.40;;;;;;5055134;28;19919;-84
2022/07/10 12:07:59;;;;;;;;;;;27.60;54.90;;;;;;5055543;28;19920;-79
2022/07/10 12:10:28;;;;;;;;;;;27.50;55.20;;;;;;5055813;28;19951;-82
2022/07/10 12:13:02;;;;;;;;;;;27.50;55.30;;;;;;5039943;28;20000;-82
2022/07/10 12:15:38;;;;;;;;;;;27.50;55.20;;;;;;5055951;28;19913;-87
2022/07/10 12:18:05;;;;;;;;;;;27.50;55.20;;;;;;5068362;28;19936;-83
2022/07/10 12:20:31;;;;;;;;;;;27.40;55.20;;;;;;5076492;28;19995;-83
2022/07/10 12:22:57;;;;;;;;;;;26.80;54.80;;;;;;5074970;28;19994;-83
2022/07/10 12:25:23;;;;;;;;;;;27.40;55.20;;;;;;5056313;28;19912;-84
2022/07/10 12:27:48;;;;;;;;;;;27.50;55.00;;;;;;5075377;28;19919;-84
2022/07/10 12:30:14;;;;;;;;;;;27.40;55.10;;;;;;5059882;28;19913;-76
2022/07/10 12:32:39;;;;;;;;;;;27.40;55.30;;;;;;5057919;28;19909;-78
2022/07/10 12:35:12;;;;;;;;;;;27.40;55.10;;;;;;5055122;28;19909;-80
2022/07/10 12:38:02;;;;;;;;;;;27.40;55.20;;;;;;5054436;28;19960;-80
2022/07/10 12:40:34;;;;;;;;;;;27.30;55.30;;;;;;5054612;28;19917;-82
2022/07/10 12:43:03;;;;;;;;;;;27.40;55.50;;;;;;5054199;28;19913;-81
2022/07/10 12:45:28;;;;;;;;;;;27.40;55.50;;;;;;5055406;28;19920;-79
2022/07/10 12:47:54;;;;;;;;;;;27.40;55.00;;;;;;5055048;28;19912;-80
2022/07/10 12:50:20;;;;;;;;;;;27.40;55.20;;;;;;5054594;28;19995;-80
2022/07/10 12:52:46;;;;;;;;;;;27.30;55.00;;;;;;5037069;28;19966;-84
2022/07/10 12:55:25;;;;;;;;;;;27.30;55.30;;;;;;5054653;28;19908;-81
2022/07/10 12:57:54;;;;;;;;;;;27.30;55.40;;;;;;5055146;28;19956;-80
2022/07/10 13:00:30;;;;;;;;;;;27.40;55.40;;;;;;5055680;28;19909;-80
2022/07/10 13:03:07;;;;;;;;;;;27.40;55.10;;;;;;5054459;28;19914;-80
2022/07/10 13:05:41;;;;;;;;;;;27.40;55.10;;;;;;5054661;28;19971;-81
2022/07/10 13:08:23;;;;;;;;;;;27.50;55.00;;;;;;5054558;28;20373;-81
2022/07/10 13:10:50;;;;;;;;;;;27.50;54.60;;;;;;5054764;28;19963;-81
2022/07/10 13:13:15;;;;;;;;;;;27.50;54.70;;;;;;5055008;28;20330;-80
2022/07/10 13:16:00;;;;;;;;;;;27.60;54.50;;;;;;5054660;28;19908;-82
2022/07/10 13:18:26;;;;;;;;;;;27.60;54.30;;;;;;5054399;28;19909;-81
2022/07/10 13:20:56;;;;;;;;;;;27.70;54.60;;;;;;5055110;28;19909;-81
2022/07/10 13:23:22;;;;;;;;;;;27.90;54.10;;;;;;5055386;28;20011;-81
2022/07/10 13:25:55;;;;;;;;;;;28.00;53.90;;;;;;5038630;28;19917;-80
2022/07/10 13:28:20;;;;;;;;;;;28.20;53.80;;;;;;5056857;28;19935;-79
2022/07/10 13:30:46;;;;;;;;;;;28.40;53.70;;;;;;5054663;28;19908;-81
2022/07/10 13:33:12;;;;;;;;;;;28.50;53.90;;;;;;5054415;28;19916;-81
2022/07/10 13:35:38;;;;;;;;;;;28.50;53.80;;;;;;5054450;28;19916;-80
2022/07/10 13:38:04;;;;;;;;;;;28.80;53.80;;;;;;5054053;28;20367;-81
2022/07/10 13:40:30;;;;;;;;;;;29.00;53.60;;;;;;5036071;28;20363;-82
2022/07/10 13:42:57;;;;;;;;;;;29.30;53.00;;;;;;5054187;28;20386;-81
2022/07/10 13:45:24;;;;;;;;;;;29.60;50.10;;;;;;5054074;28;19928;-82
2022/07/10 13:47:50;;;;;;;;;;;30.00;52.30;;;;;;5053604;28;19916;-79
2022/07/10 13:50:15;;;;;;;;;;;30.30;51.70;;;;;;5053082;28;19909;-79
2022/07/10 13:52:41;;;;;;;;;;;30.60;50.70;;;;;;5054000;28;19948;-80
2022/07/10 13:55:06;;;;;;;;;;;30.60;51.00;;;;;;5053861;28;20414;-80
2022/07/10 13:57:32;;;;;;;;;;;30.50;50.60;;;;;;5035979;28;19979;-81
2022/07/10 13:59:58;;;;;;;;;;;30.30;50.90;;;;;;5019275;28;20007;-81
2022/07/10 14:02:24;;;;;;;;;;;30.30;51.70;;;;;;5036140;28;20397;-81
2022/07/10 14:04:49;;;;;;;;;;;30.50;51.30;;;;;;5053921;28;19956;-81
2022/07/10 14:07:15;;;;;;;;;;;30.70;51.20;;;;;;5053735;28;19928;-81
2022/07/10 14:09:40;;;;;;;;;;;30.70;51.00;;;;;;5053195;28;19909;-80
2022/07/10 14:12:06;;;;;;;;;;;30.50;51.10;;;;;;5054423;28;19943;-80
2022/07/10 14:14:32;;;;;;;;;;;30.40;52.00;;;;;;5054094;28;19909;-81
2022/07/10 14:16:57;;;;;;;;;;;30.40;52.30;;;;;;5053345;28;19963;-80
2022/07/10 14:19:23;;;;;;;;;;;30.40;52.10;;;;;;5054453;28;19955;-80
2022/07/10 14:21:48;;;;;;;;;;;30.40;52.40;;;;;;5053824;28;20401;-81
2022/07/10 14:24:14;;;;;;;;;;;30.60;52.20;;;;;;5052995;28;19913;-81
2022/07/10 14:26:39;;;;;;;;;;;31.10;52.80;;;;;;5053377;28;19920;-81
2022/07/10 14:29:05;;;;;;;;;;;31.70;50.50;;;;;;5053329;28;19909;-80